Pratt, Minnesota
Current Conditions -  °F | °C
As of 2:55 AM on Monday 22 Dec 2014 (Local Time) from KOWA Reporting Station
Haze Haze  
Wind Chill: 29°   Ceiling: 600
Heat Index: 37°   Visibility: 4mi
Dew Point: 36°   Wind: 14mph
Humidity: 93%   Direction: 140°SE
Pressure: 29.68"   Gusts: 20mph
Location:  44.0575°N, 93.2082°W
Report Text: KOWA 220855Z AUTO 14012G17KT 4SM BR OVC006 03/02 A2968 RMK AO2
Loading
Personal Weather Stations






























Interactive Weather Map New forecast layout! Learn more

10-Day Weather Forecast

Advertisements
Track Severe Weather on mobile